Time;durP1;ratioP1;P1;durP2;ratioP2;P2;SDS_P1;SDS_P2;PMS_P1;PMS_P2;Temp;Humidity;BMP_temperature;BMP_pressure;BME280_temperature;BME280_humidity;BME280_pressure;Samples;Min_cycle;Max_cycle;Signal;HPM_P1;HPM_P2
2022/06/08 00:01:21;;;;;;;;;;;10.20;99.90;;;;;;5019332;28;19927;-76
2022/06/08 00:03:51;;;;;;;;;;;10.20;99.90;;;;;;5023747;28;19944;-76
2022/06/08 00:06:18;;;;;;;;;;;10.20;99.90;;;;;;5024797;28;20003;-77
2022/06/08 00:08:44;;;;;;;;;;;10.20;99.90;;;;;;5024831;28;19905;-76
2022/06/08 00:11:09;;;;;;;;;;;10.10;99.90;;;;;;5028090;28;20576;-77
2022/06/08 00:13:36;;;;;;;;;;;10.10;99.90;;;;;;5035222;28;19956;-77
2022/06/08 00:16:02;;;;;;;;;;;10.00;99.90;;;;;;5023435;28;19924;-77
2022/06/08 00:18:28;;;;;;;;;;;9.90;99.90;;;;;;5016747;28;20324;-77
2022/06/08 00:20:54;;;;;;;;;;;9.90;99.90;;;;;;5015037;28;20370;-77
2022/06/08 00:23:20;;;;;;;;;;;9.90;99.90;;;;;;5018714;28;19916;-77
2022/06/08 00:25:46;;;;;;;;;;;9.80;99.90;;;;;;5019833;28;20026;-76
2022/06/08 00:28:11;;;;;;;;;;;9.70;99.90;;;;;;5022640;28;19913;-77
2022/06/08 00:30:37;;;;;;;;;;;9.70;99.90;;;;;;5016254;28;19980;-76
2022/06/08 00:33:03;;;;;;;;;;;9.60;99.90;;;;;;5021546;28;19905;-77
2022/06/08 00:35:28;;;;;;;;;;;9.60;99.90;;;;;;5019316;28;19912;-76
2022/06/08 00:37:54;;;;;;;;;;;9.60;99.90;;;;;;5025526;28;19984;-76
2022/06/08 00:40:22;;;;;;;;;;;9.50;99.90;;;;;;5023148;28;19917;-77
2022/06/08 00:42:47;;;;;;;;;;;9.50;99.90;;;;;;5026329;28;19913;-76
2022/06/08 00:45:21;;;;;;;;;;;9.50;99.90;;;;;;5024267;28;20016;-77
2022/06/08 00:47:48;;;;;;;;;;;9.50;99.90;;;;;;5027456;28;19920;-76
2022/06/08 00:50:22;;;;;;;;;;;9.70;99.90;;;;;;5022404;28;20588;-77
2022/06/08 00:52:48;;;;;;;;;;;9.70;99.90;;;;;;5025667;28;19912;-76
2022/06/08 00:55:15;;;;;;;;;;;9.60;99.90;;;;;;5019537;28;20182;-76
2022/06/08 00:57:47;;;;;;;;;;;9.60;99.90;;;;;;5020655;28;19905;-77
2022/06/08 01:00:15;;;;;;;;;;;9.50;99.90;;;;;;5024184;28;19923;-76
2022/06/08 01:02:41;;;;;;;;;;;9.40;99.90;;;;;;5027179;28;20321;-76
2022/06/08 01:05:16;;;;;;;;;;;9.40;99.90;;;;;;5026370;28;19913;-76
2022/06/08 01:07:41;;;;;;;;;;;9.40;99.90;;;;;;5022552;28;19909;-76
2022/06/08 01:10:11;;;;;;;;;;;9.30;99.90;;;;;;5016805;28;19980;-76
2022/06/08 01:12:36;;;;;;;;;;;9.30;99.90;;;;;;5016657;28;19906;-76
2022/06/08 01:15:03;;;;;;;;;;;9.30;99.90;;;;;;5015607;28;20280;-76
2022/06/08 01:17:28;;;;;;;;;;;9.30;99.90;;;;;;5016376;28;20169;-77
2022/06/08 01:19:54;;;;;;;;;;;9.30;99.90;;;;;;5015403;28;20252;-77
2022/06/08 01:22:20;;;;;;;;;;;9.30;99.90;;;;;;5015881;28;19913;-76
2022/06/08 01:24:47;;;;;;;;;;;9.20;99.90;;;;;;5015197;28;19916;-76
2022/06/08 01:27:27;;;;;;;;;;;9.10;99.90;;;;;;5017440;28;19905;-77
2022/06/08 01:29:59;;;;;;;;;;;9.10;99.90;;;;;;5016960;28;20372;-77
2022/06/08 01:32:24;;;;;;;;;;;9.10;99.90;;;;;;5016996;28;19905;-77
2022/06/08 01:35:02;;;;;;;;;;;9.10;99.90;;;;;;5015562;28;19960;-77
2022/06/08 01:37:34;;;;;;;;;;;9.00;99.90;;;;;;5016021;28;19988;-77
2022/06/08 01:40:02;;;;;;;;;;;9.00;99.90;;;;;;5015853;28;19919;-77
2022/06/08 01:42:44;;;;;;;;;;;9.00;99.90;;;;;;5017117;28;19905;-77
2022/06/08 01:45:28;;;;;;;;;;;8.90;99.90;;;;;;5015312;28;20274;-77
2022/06/08 01:48:06;;;;;;;;;;;8.90;99.90;;;;;;5015613;28;19909;-77
2022/06/08 01:50:35;;;;;;;;;;;8.90;99.90;;;;;;5015046;28;19909;-76
2022/06/08 01:53:08;;;;;;;;;;;8.80;99.90;;;;;;5015528;28;19911;-76
2022/06/08 01:55:48;;;;;;;;;;;8.80;99.90;;;;;;5014438;28;20362;-77
2022/06/08 01:58:27;;;;;;;;;;;8.80;99.90;;;;;;5013974;28;19916;-76
2022/06/08 02:01:00;;;;;;;;;;;8.80;99.90;;;;;;5017238;28;20127;-76
2022/06/08 02:03:25;;;;;;;;;;;8.70;99.90;;;;;;5015382;28;20362;-76
2022/06/08 02:06:01;;;;;;;;;;;8.80;99.90;;;;;;5011756;28;20008;-76
2022/06/08 02:08:36;;;;;;;;;;;8.80;99.90;;;;;;5014340;28;20420;-76
2022/06/08 02:11:17;;;;;;;;;;;8.80;99.90;;;;;;5011506;28;20273;-76
2022/06/08 02:13:46;;;;;;;;;;;8.80;99.90;;;;;;5013025;28;19917;-76
2022/06/08 02:16:15;;;;;;;;;;;8.70;99.90;;;;;;5012722;28;19917;-77
2022/06/08 02:18:43;;;;;;;;;;;8.70;99.90;;;;;;5012355;28;20364;-76
2022/06/08 02:21:11;;;;;;;;;;;8.60;99.90;;;;;;5011840;28;19923;-76
2022/06/08 02:23:45;;;;;;;;;;;8.60;99.90;;;;;;5014006;28;20183;-76
2022/06/08 02:26:17;;;;;;;;;;;8.50;99.90;;;;;;5012244;28;19909;-76
2022/06/08 02:29:01;;;;;;;;;;;8.50;99.90;;;;;;5013489;28;19917;-76
2022/06/08 02:31:31;;;;;;;;;;;8.50;99.90;;;;;;5011179;28;19992;-76
2022/06/08 02:34:29;;;;;;;;;;;8.60;99.90;;;;;;5011052;28;19905;-76
2022/06/08 02:36:58;;;;;;;;;;;8.60;99.90;;;;;;5012394;28;20402;-76
2022/06/08 02:39:30;;;;;;;;;;;8.50;99.90;;;;;;5012416;28;20170;-76
2022/06/08 02:41:58;;;;;;;;;;;8.30;99.90;;;;;;5010836;28;19909;-76
2022/06/08 02:44:27;;;;;;;;;;;8.50;99.90;;;;;;5010748;28;19964;-76
2022/06/08 02:47:05;;;;;;;;;;;8.50;99.90;;;;;;5012244;28;19905;-77
2022/06/08 02:49:35;;;;;;;;;;;8.40;99.90;;;;;;5012720;28;19932;-76
2022/06/08 02:52:02;;;;;;;;;;;8.30;99.90;;;;;;5012669;28;19944;-76
2022/06/08 02:54:28;;;;;;;;;;;8.30;99.90;;;;;;5012001;28;19992;-76
2022/06/08 02:57:00;;;;;;;;;;;8.40;99.90;;;;;;5011934;28;20374;-77
2022/06/08 02:59:31;;;;;;;;;;;8.50;99.90;;;;;;5010712;28;19909;-76
2022/06/08 03:02:11;;;;;;;;;;;8.40;99.90;;;;;;5010525;28;19916;-77
2022/06/08 03:05:03;;;;;;;;;;;8.30;99.90;;;;;;5010470;28;20342;-76
2022/06/08 03:07:36;;;;;;;;;;;8.20;99.90;;;;;;5009937;28;19905;-77
2022/06/08 03:10:05;;;;;;;;;;;8.30;99.90;;;;;;5011495;28;20424;-76
2022/06/08 03:12:33;;;;;;;;;;;8.40;99.90;;;;;;5011640;28;19905;-76
2022/06/08 03:14:59;;;;;;;;;;;8.40;99.90;;;;;;5010169;28;20153;-76
2022/06/08 03:17:27;;;;;;;;;;;8.30;99.90;;;;;;5010163;28;19932;-77
2022/06/08 03:19:53;;;;;;;;;;;8.20;99.90;;;;;;5011502;28;19921;-77
2022/06/08 03:22:19;;;;;;;;;;;8.20;99.90;;;;;;5011916;28;19912;-77
2022/06/08 03:24:45;;;;;;;;;;;8.10;99.90;;;;;;5010646;28;19996;-77
2022/06/08 03:27:11;;;;;;;;;;;8.10;99.90;;;;;;5010650;28;19905;-77
2022/06/08 03:29:37;;;;;;;;;;;8.10;99.90;;;;;;5010706;28;19905;-76
2022/06/08 03:32:03;;;;;;;;;;;8.10;99.90;;;;;;5026763;28;19999;-77
2022/06/08 03:34:29;;;;;;;;;;;8.10;99.90;;;;;;5010269;28;19981;-77
2022/06/08 03:36:55;;;;;;;;;;;8.10;99.90;;;;;;5011653;28;20039;-77
2022/06/08 03:39:21;;;;;;;;;;;8.10;99.90;;;;;;5009969;28;19992;-77
2022/06/08 03:41:46;;;;;;;;;;;8.20;99.90;;;;;;5011141;28;19917;-78
2022/06/08 03:44:12;;;;;;;;;;;8.30;99.90;;;;;;5010269;28;19909;-77
2022/06/08 03:46:40;;;;;;;;;;;8.30;99.90;;;;;;5010050;28;20374;-77
2022/06/08 03:49:06;;;;;;;;;;;8.30;99.90;;;;;;5010906;28;19906;-77
2022/06/08 03:51:31;;;;;;;;;;;8.20;99.90;;;;;;5010267;28;19906;-77
2022/06/08 03:54:02;;;;;;;;;;;8.20;99.90;;;;;;5011522;28;20301;-77
2022/06/08 03:56:29;;;;;;;;;;;8.20;99.90;;;;;;5014315;28;19949;-77
2022/06/08 03:58:55;;;;;;;;;;;8.30;99.90;;;;;;5013649;28;19910;-77
2022/06/08 04:01:21;;;;;;;;;;;8.30;99.90;;;;;;5011896;28;19936;-77
2022/06/08 04:03:50;;;;;;;;;;;8.20;99.90;;;;;;5014324;28;19906;-77
2022/06/08 04:06:16;;;;;;;;;;;8.20;99.90;;;;;;5015691;28;19928;-77
2022/06/08 04:08:42;;;;;;;;;;;8.20;99.90;;;;;;5015622;28;20422;-77
2022/06/08 04:11:07;;;;;;;;;;;8.30;99.90;;;;;;5031629;28;19905;-79
2022/06/08 04:13:33;;;;;;;;;;;8.30;99.90;;;;;;5020528;28;19927;-76
2022/06/08 04:16:01;;;;;;;;;;;8.40;99.90;;;;;;5023040;28;19929;-76
2022/06/08 04:18:27;;;;;;;;;;;8.40;99.90;;;;;;5022693;28;19910;-77
2022/06/08 04:20:54;;;;;;;;;;;8.50;99.90;;;;;;5014495;28;19914;-78
2022/06/08 04:23:21;;;;;;;;;;;8.50;99.90;;;;;;5013653;28;20350;-77
2022/06/08 04:25:47;;;;;;;;;;;8.60;99.90;;;;;;5013792;28;19909;-78
2022/06/08 04:28:15;;;;;;;;;;;8.80;99.90;;;;;;5015693;28;19912;-77
2022/06/08 04:30:41;;;;;;;;;;;8.80;99.90;;;;;;5013445;28;19910;-77
2022/06/08 04:33:07;;;;;;;;;;;9.00;99.90;;;;;;5014170;28;19910;-76
2022/06/08 04:35:33;;;;;;;;;;;9.00;99.90;;;;;;5021125;28;19995;-75
2022/06/08 04:37:59;;;;;;;;;;;9.10;99.90;;;;;;5021967;28;19905;-76
2022/06/08 04:40:25;;;;;;;;;;;9.20;99.90;;;;;;5021812;28;19917;-76
2022/06/08 04:42:51;;;;;;;;;;;9.40;99.90;;;;;;5020700;28;19906;-75
2022/06/08 04:45:17;;;;;;;;;;;9.80;99.90;;;;;;5018661;28;20167;-76
2022/06/08 04:47:42;;;;;;;;;;;10.60;99.90;;;;;;5021623;28;19944;-77
2022/06/08 04:50:08;;;;;;;;;;;10.80;99.90;;;;;;5036534;28;19913;-75
2022/06/08 04:52:35;;;;;;;;;;;10.90;99.90;;;;;;5022710;28;19912;-76
2022/06/08 04:55:00;;;;;;;;;;;10.80;99.90;;;;;;5023747;28;19905;-76
2022/06/08 04:57:27;;;;;;;;;;;10.70;99.90;;;;;;5023798;28;20337;-76
2022/06/08 04:59:52;;;;;;;;;;;10.50;99.90;;;;;;5022087;28;19940;-77
2022/06/08 05:05:04;;;;;;;;;;;10.70;99.90;;;;;;5019072;28;19959;-77
2022/06/08 05:07:29;;;;;;;;;;;10.70;99.90;;;;;;5018144;28;19967;-77
2022/06/08 05:09:55;;;;;;;;;;;10.70;99.90;;;;;;5017598;28;19944;-77
2022/06/08 05:12:20;;;;;;;;;;;10.80;99.90;;;;;;5016745;28;20118;-78
2022/06/08 05:14:46;;;;;;;;;;;10.80;99.90;;;;;;5016199;28;20432;-78
2022/06/08 05:17:11;;;;;;;;;;;10.90;99.90;;;;;;5016370;28;20011;-78
2022/06/08 05:19:37;;;;;;;;;;;11.00;99.90;;;;;;5018056;28;19921;-78
2022/06/08 05:22:03;;;;;;;;;;;11.10;99.90;;;;;;5017178;28;19909;-78
2022/06/08 05:24:28;;;;;;;;;;;11.30;99.90;;;;;;5016765;28;19913;-78
2022/06/08 05:26:54;;;;;;;;;;;11.50;99.90;;;;;;5016025;28;19906;-77
2022/06/08 05:29:19;;;;;;;;;;;11.60;99.90;;;;;;5015054;28;19906;-77
2022/06/08 05:31:45;;;;;;;;;;;11.80;99.90;;;;;;5015185;28;19912;-77
2022/06/08 05:34:10;;;;;;;;;;;11.20;99.90;;;;;;5014043;28;19909;-76
2022/06/08 05:36:36;;;;;;;;;;;12.00;99.90;;;;;;5016283;28;19906;-74
2022/06/08 05:39:02;;;;;;;;;;;12.20;99.90;;;;;;5012189;28;19910;-74
2022/06/08 05:41:27;;;;;;;;;;;12.20;99.90;;;;;;5019828;28;19925;-74
2022/06/08 05:43:53;;;;;;;;;;;12.40;99.90;;;;;;5034711;28;19905;-73
2022/06/08 05:46:18;;;;;;;;;;;12.50;99.90;;;;;;5032635;28;19909;-74
2022/06/08 05:48:44;;;;;;;;;;;12.60;99.90;;;;;;5032314;28;19916;-73
2022/06/08 05:51:10;;;;;;;;;;;12.80;99.90;;;;;;5032310;28;20011;-73
2022/06/08 05:53:35;;;;;;;;;;;13.10;99.90;;;;;;5031433;28;19915;-74
2022/06/08 05:56:01;;;;;;;;;;;13.20;99.90;;;;;;5032265;28;19979;-73
2022/06/08 05:58:27;;;;;;;;;;;13.40;99.90;;;;;;5032364;28;20368;-74
2022/06/08 06:00:52;;;;;;;;;;;13.60;99.90;;;;;;5030578;28;19948;-73
2022/06/08 06:03:18;;;;;;;;;;;13.80;99.90;;;;;;5029503;28;20362;-74
2022/06/08 06:05:44;;;;;;;;;;;14.40;99.90;;;;;;5029102;28;20328;-73
2022/06/08 06:08:10;;;;;;;;;;;14.90;99.90;;;;;;5029569;28;20328;-73
2022/06/08 06:10:37;;;;;;;;;;;15.40;99.90;;;;;;5028932;28;19924;-74
2022/06/08 06:13:03;;;;;;;;;;;15.70;99.90;;;;;;5028637;28;19952;-74
2022/06/08 06:15:29;;;;;;;;;;;15.80;99.90;;;;;;5023370;28;20007;-74
2022/06/08 06:17:54;;;;;;;;;;;16.10;99.90;;;;;;5013648;28;20027;-74
2022/06/08 06:20:20;;;;;;;;;;;15.90;99.90;;;;;;5017823;28;20117;-74
2022/06/08 06:22:45;;;;;;;;;;;16.30;99.90;;;;;;5020352;28;19916;-74
2022/06/08 06:25:11;;;;;;;;;;;16.60;99.90;;;;;;5024507;28;19911;-74
2022/06/08 06:27:37;;;;;;;;;;;16.90;99.90;;;;;;5023676;28;19964;-74
2022/06/08 06:30:04;;;;;;;;;;;17.30;99.90;;;;;;5025407;28;20369;-74
2022/06/08 06:32:31;;;;;;;;;;;17.30;99.90;;;;;;5024140;28;19905;-74
2022/06/08 06:34:58;;;;;;;;;;;17.60;99.90;;;;;;5020365;28;20002;-74
2022/06/08 06:37:25;;;;;;;;;;;17.90;99.90;;;;;;5024675;28;19937;-74
2022/06/08 06:39:51;;;;;;;;;;;18.60;99.90;;;;;;5025605;28;19913;-74
2022/06/08 06:42:18;;;;;;;;;;;19.10;99.90;;;;;;5008029;28;19909;-74
2022/06/08 06:44:43;;;;;;;;;;;18.60;99.90;;;;;;5008246;28;19992;-74
2022/06/08 06:47:09;;;;;;;;;;;19.10;99.90;;;;;;5008299;28;20004;-74
2022/06/08 06:49:35;;;;;;;;;;;19.30;99.90;;;;;;5006999;28;19909;-74
2022/06/08 06:52:00;;;;;;;;;;;19.00;99.90;;;;;;5008037;28;20251;-75
2022/06/08 06:54:26;;;;;;;;;;;18.50;99.90;;;;;;5008259;28;19920;-76
2022/06/08 06:56:51;;;;;;;;;;;18.60;99.90;;;;;;5006789;28;19927;-74
2022/06/08 06:59:17;;;;;;;;;;;18.80;99.90;;;;;;5006434;28;20486;-74
2022/06/08 07:01:42;;;;;;;;;;;19.00;99.90;;;;;;5008021;28;20016;-75
2022/06/08 07:04:08;;;;;;;;;;;19.10;99.90;;;;;;5008252;28;19905;-76
2022/06/08 07:06:33;;;;;;;;;;;19.60;99.90;;;;;;5025266;28;20188;-76
2022/06/08 07:08:59;;;;;;;;;;;19.20;99.90;;;;;;5012844;28;20378;-77
2022/06/08 07:11:40;;;;;;;;;;;19.50;99.90;;;;;;5006160;28;20008;-75
2022/06/08 07:14:07;;;;;;;;;;;20.00;99.90;;;;;;5012250;28;19905;-75
2022/06/08 07:16:34;;;;;;;;;;;20.20;99.90;;;;;;5005885;28;20282;-75
2022/06/08 07:19:00;;;;;;;;;;;19.40;99.90;;;;;;5004264;28;19924;-75
2022/06/08 07:21:25;;;;;;;;;;;19.00;99.90;;;;;;5004605;28;20129;-75
2022/06/08 07:23:51;;;;;;;;;;;19.10;99.90;;;;;;5007119;28;20421;-75
2022/06/08 07:26:20;;;;;;;;;;;18.60;99.90;;;;;;5009584;28;19999;-75
2022/06/08 07:28:45;;;;;;;;;;;19.30;99.90;;;;;;5005688;28;19909;-75
2022/06/08 07:31:12;;;;;;;;;;;18.60;99.90;;;;;;5005781;28;19909;-75
2022/06/08 07:33:38;;;;;;;;;;;18.70;99.90;;;;;;5012504;28;20263;-75
2022/06/08 07:36:04;;;;;;;;;;;19.20;99.90;;;;;;5012008;28;20583;-75
2022/06/08 07:38:30;;;;;;;;;;;18.60;99.90;;;;;;5031285;28;20104;-75
2022/06/08 07:40:55;;;;;;;;;;;18.70;99.90;;;;;;5003474;28;20374;-75
2022/06/08 07:43:22;;;;;;;;;;;18.40;99.90;;;;;;5015914;28;19909;-75
2022/06/08 07:45:47;;;;;;;;;;;18.40;99.90;;;;;;5005692;28;19959;-74
2022/06/08 07:50:57;;;;;;;;;;;19.10;99.90;;;;;;5006893;28;19962;-75
2022/06/08 07:53:23;;;;;;;;;;;20.00;99.90;;;;;;5022185;28;19913;-75
2022/06/08 07:55:48;;;;;;;;;;;21.10;99.90;;;;;;5022512;28;19906;-75
2022/06/08 07:58:14;;;;;;;;;;;21.50;99.90;;;;;;5005489;28;19924;-75
2022/06/08 08:00:43;;;;;;;;;;;20.70;99.90;;;;;;5006945;28;19928;-75
2022/06/08 08:03:09;;;;;;;;;;;20.20;99.90;;;;;;5006967;28;19906;-74
2022/06/08 08:05:35;;;;;;;;;;;20.30;99.90;;;;;;5018167;28;20011;-75
2022/06/08 08:08:00;;;;;;;;;;;20.70;99.90;;;;;;5025901;28;20351;-75
2022/06/08 08:10:26;;;;;;;;;;;21.70;99.90;;;;;;5023479;28;20361;-75
2022/06/08 08:12:55;;;;;;;;;;;22.70;98.20;;;;;;5024980;28;19915;-75
2022/06/08 08:15:22;;;;;;;;;;;23.00;98.10;;;;;;5023137;28;20415;-75
2022/06/08 08:17:47;;;;;;;;;;;22.60;94.90;;;;;;5040140;28;20007;-75
2022/06/08 08:20:14;;;;;;;;;;;22.60;99.90;;;;;;5024146;28;19999;-75
2022/06/08 08:22:40;;;;;;;;;;;23.10;91.50;;;;;;5041105;28;20447;-75
2022/06/08 08:25:06;;;;;;;;;;;23.10;91.70;;;;;;5026604;28;19913;-76
2022/06/08 08:27:31;;;;;;;;;;;23.40;80.60;;;;;;5026484;28;20385;-75
2022/06/08 08:29:57;;;;;;;;;;;23.40;82.00;;;;;;5026422;28;20285;-75
2022/06/08 08:32:22;;;;;;;;;;;22.00;99.20;;;;;;5041631;28;20390;-75
2022/06/08 08:34:48;;;;;;;;;;;22.40;99.90;;;;;;5024491;28;20254;-77
2022/06/08 08:37:13;;;;;;;;;;;22.40;91.00;;;;;;5024809;28;20305;-77
2022/06/08 08:39:39;;;;;;;;;;;22.00;99.90;;;;;;5023268;28;19924;-78
2022/06/08 08:42:20;;;;;;;;;;;22.30;99.90;;;;;;5022490;28;19959;-78
2022/06/08 08:44:47;;;;;;;;;;;22.60;96.90;;;;;;5023511;28;19916;-78
2022/06/08 08:47:17;;;;;;;;;;;23.00;67.80;;;;;;5022858;28;19935;-76
2022/06/08 08:50:06;;;;;;;;;;;24.20;65.10;;;;;;5010491;28;19999;-77
2022/06/08 08:52:45;;;;;;;;;;;24.50;62.60;;;;;;5006076;28;19905;-76
2022/06/08 08:55:23;;;;;;;;;;;23.40;66.10;;;;;;5008766;28;20008;-76
2022/06/08 08:57:55;;;;;;;;;;;22.80;74.50;;;;;;5025314;28;19962;-77
2022/06/08 09:00:44;;;;;;;;;;;22.40;81.30;;;;;;5008577;28;19925;-76
2022/06/08 09:03:16;;;;;;;;;;;22.60;79.80;;;;;;5005409;28;19924;-77
2022/06/08 09:05:42;;;;;;;;;;;22.40;88.90;;;;;;5009159;28;19905;-76
2022/06/08 09:08:11;;;;;;;;;;;22.70;82.60;;;;;;5009020;28;19916;-76
2022/06/08 09:10:38;;;;;;;;;;;23.00;81.50;;;;;;5009990;28;19956;-77
2022/06/08 09:13:04;;;;;;;;;;;23.50;73.60;;;;;;5009857;28;19914;-77
2022/06/08 09:15:45;;;;;;;;;;;23.70;75.60;;;;;;5008019;28;20005;-78
2022/06/08 09:18:18;;;;;;;;;;;23.80;69.10;;;;;;5010182;28;19913;-76
2022/06/08 09:20:43;;;;;;;;;;;24.70;62.40;;;;;;5010700;28;19940;-77
2022/06/08 09:23:25;;;;;;;;;;;25.30;62.00;;;;;;5025398;28;19910;-79
2022/06/08 09:26:21;;;;;;;;;;;25.30;64.80;;;;;;5010307;28;19906;-77
2022/06/08 09:28:55;;;;;;;;;;;24.60;65.40;;;;;;5013047;28;19913;-77
2022/06/08 09:31:22;;;;;;;;;;;25.00;63.00;;;;;;5010433;28;20008;-78
2022/06/08 09:33:48;;;;;;;;;;;25.00;61.60;;;;;;5012583;28;19915;-78
2022/06/08 09:36:25;;;;;;;;;;;22.90;59.50;;;;;;5029282;28;19909;-78
2022/06/08 09:38:50;;;;;;;;;;;25.20;60.00;;;;;;5030204;28;19915;-76
2022/06/08 09:41:25;;;;;;;;;;;23.70;57.70;;;;;;5029409;28;19921;-77
2022/06/08 09:44:09;;;;;;;;;;;23.90;58.10;;;;;;5029827;28;19912;-77
2022/06/08 09:52:41;;;;;;;;;;;24.10;62.20;;;;;;5028768;28;20004;-77
2022/06/08 09:55:12;;;;;;;;;;;23.60;59.90;;;;;;5027463;28;20291;-78
2022/06/08 09:57:38;;;;;;;;;;;24.10;62.20;;;;;;5028631;28;19947;-77
2022/06/08 10:00:10;;;;;;;;;;;23.00;66.10;;;;;;5029024;28;20370;-78
2022/06/08 10:02:38;;;;;;;;;;;23.10;79.50;;;;;;5029262;28;19909;-78
2022/06/08 10:05:24;;;;;;;;;;;23.30;78.50;;;;;;5028853;28;20004;-78
2022/06/08 10:07:50;;;;;;;;;;;23.20;69.00;;;;;;5027517;28;19975;-79
2022/06/08 10:10:22;;;;;;;;;;;23.30;72.50;;;;;;5026995;28;20392;-78
2022/06/08 10:12:47;;;;;;;;;;;23.80;62.90;;;;;;5027086;28;19905;-78
2022/06/08 10:15:34;;;;;;;;;;;23.80;62.90;;;;;;5028579;28;19916;-77
2022/06/08 10:18:05;;;;;;;;;;;23.60;61.20;;;;;;5027456;28;19944;-76
2022/06/08 10:20:34;;;;;;;;;;;23.70;65.70;;;;;;5028568;28;20167;-77
2022/06/08 10:23:04;;;;;;;;;;;24.00;61.40;;;;;;5028979;28;19905;-77
2022/06/08 10:25:44;;;;;;;;;;;24.50;58.80;;;;;;5028587;28;19927;-77
2022/06/08 10:28:12;;;;;;;;;;;24.10;63.10;;;;;;5021881;28;19908;-77
2022/06/08 10:30:54;;;;;;;;;;;23.90;62.60;;;;;;5026931;28;20334;-76
2022/06/08 10:33:26;;;;;;;;;;;23.90;62.50;;;;;;5026840;28;20354;-76
2022/06/08 10:35:56;;;;;;;;;;;23.50;63.50;;;;;;5031857;28;19999;-76
2022/06/08 10:38:21;;;;;;;;;;;23.60;56.30;;;;;;5002436;28;19948;-77
2022/06/08 10:40:53;;;;;;;;;;;23.30;58.90;;;;;;5028134;28;19925;-76
2022/06/08 10:43:24;;;;;;;;;;;23.80;59.50;;;;;;5027886;28;19909;-76
2022/06/08 10:45:55;;;;;;;;;;;24.10;60.90;;;;;;5028261;28;19908;-76
2022/06/08 10:48:25;;;;;;;;;;;24.30;58.90;;;;;;5027594;28;19905;-76
2022/06/08 10:51:19;;;;;;;;;;;24.50;57.70;;;;;;5027581;28;20511;-76
2022/06/08 10:56:36;;;;;;;;;;;24.90;55.70;;;;;;5026846;28;19916;-76
2022/06/08 10:59:08;;;;;;;;;;;24.70;58.40;;;;;;5024565;28;19955;-76
2022/06/08 11:01:47;;;;;;;;;;;24.70;58.80;;;;;;5026433;28;19928;-76
2022/06/08 11:04:31;;;;;;;;;;;24.90;58.50;;;;;;5043183;28;19978;-75
2022/06/08 11:06:58;;;;;;;;;;;25.60;55.30;;;;;;5026009;28;19940;-75
2022/06/08 11:09:33;;;;;;;;;;;26.70;53.00;;;;;;5027806;28;20382;-75
2022/06/08 11:12:01;;;;;;;;;;;26.00;54.10;;;;;;5025909;28;20017;-75
2022/06/08 11:14:57;;;;;;;;;;;25.20;55.60;;;;;;5027748;28;20381;-75
2022/06/08 11:17:36;;;;;;;;;;;25.40;55.00;;;;;;5018622;28;20365;-75
2022/06/08 11:20:05;;;;;;;;;;;23.60;53.50;;;;;;5027249;28;19913;-76
2022/06/08 11:22:37;;;;;;;;;;;24.40;55.50;;;;;;5026142;28;19916;-75
2022/06/08 11:25:05;;;;;;;;;;;24.30;56.40;;;;;;5028160;28;20412;-75
2022/06/08 11:27:35;;;;;;;;;;;24.20;58.80;;;;;;5042941;28;19909;-75
2022/06/08 11:30:20;;;;;;;;;;;23.70;58.40;;;;;;5026326;28;19962;-74
2022/06/08 11:32:51;;;;;;;;;;;23.70;56.80;;;;;;5026275;28;19905;-75
2022/06/08 11:35:46;;;;;;;;;;;23.50;57.00;;;;;;5025528;28;19975;-75
2022/06/08 11:38:50;;;;;;;;;;;23.60;57.80;;;;;;5027086;28;19909;-74
2022/06/08 11:41:35;;;;;;;;;;;23.70;56.80;;;;;;5004224;28;19983;-76
2022/06/08 11:44:11;;;;;;;;;;;23.40;57.90;;;;;;5004853;28;19910;-77
2022/06/08 11:46:41;;;;;;;;;;;23.50;57.90;;;;;;5019125;28;19916;-75
2022/06/08 11:49:27;;;;;;;;;;;23.40;59.20;;;;;;5026958;28;19909;-75
2022/06/08 11:51:53;;;;;;;;;;;23.30;58.40;;;;;;5031795;28;20360;-74
2022/06/08 11:54:22;;;;;;;;;;;23.20;60.80;;;;;;5027641;28;19912;-75
2022/06/08 11:56:57;;;;;;;;;;;22.60;58.80;;;;;;5027880;28;19909;-74
2022/06/08 11:59:23;;;;;;;;;;;22.30;59.60;;;;;;5026492;28;20002;-75
2022/06/08 12:01:58;;;;;;;;;;;22.20;60.10;;;;;;5025459;28;19983;-74
2022/06/08 12:04:25;;;;;;;;;;;22.20;60.90;;;;;;5027680;28;19916;-75
2022/06/08 12:06:52;;;;;;;;;;;22.10;60.30;;;;;;5027277;28;20389;-75
2022/06/08 12:09:36;;;;;;;;;;;21.80;61.40;;;;;;5027042;28;20365;-74
2022/06/08 12:12:22;;;;;;;;;;;21.70;63.30;;;;;;5026553;28;19936;-73
2022/06/08 12:14:47;;;;;;;;;;;21.70;63.10;;;;;;5025440;28;20104;-77
2022/06/08 12:17:13;;;;;;;;;;;22.00;64.50;;;;;;5026942;28;20095;-75
2022/06/08 12:19:51;;;;;;;;;;;21.60;63.60;;;;;;5026882;28;19909;-75
2022/06/08 12:22:17;;;;;;;;;;;21.20;67.80;;;;;;5026829;28;19915;-73
2022/06/08 12:24:42;;;;;;;;;;;21.00;75.30;;;;;;5026842;28;19905;-76
2022/06/08 12:27:18;;;;;;;;;;;21.00;94.50;;;;;;5027424;28;19913;-74
2022/06/08 12:29:47;;;;;;;;;;;20.90;94.90;;;;;;5033490;28;19959;-77
2022/06/08 12:32:21;;;;;;;;;;;20.80;99.90;;;;;;5031091;28;19905;-78
2022/06/08 12:34:48;;;;;;;;;;;21.00;99.90;;;;;;5025336;28;20527;-75
2022/06/08 12:37:25;;;;;;;;;;;20.70;99.90;;;;;;5014272;28;19932;-76
2022/06/08 12:39:51;;;;;;;;;;;20.20;99.90;;;;;;5017857;28;19909;-76
2022/06/08 12:42:27;;;;;;;;;;;19.40;99.90;;;;;;5034271;28;19916;-76
2022/06/08 12:44:54;;;;;;;;;;;19.30;99.90;;;;;;5040053;28;20312;-76
2022/06/08 12:47:19;;;;;;;;;;;18.90;99.90;;;;;;5054065;28;19905;-76
2022/06/08 12:49:51;;;;;;;;;;;18.70;99.90;;;;;;5021240;28;20278;-75
2022/06/08 12:52:24;;;;;;;;;;;18.50;99.90;;;;;;5019775;28;19912;-75
2022/06/08 12:54:50;;;;;;;;;;;18.30;99.90;;;;;;5014421;28;19906;-77
2022/06/08 12:57:18;;;;;;;;;;;18.20;99.90;;;;;;5031587;28;20182;-78
2022/06/08 12:59:45;;;;;;;;;;;18.10;99.90;;;;;;5014918;28;19956;-75
2022/06/08 13:02:16;;;;;;;;;;;18.10;99.90;;;;;;5016842;28;20015;-75
2022/06/08 13:04:42;;;;;;;;;;;18.00;99.90;;;;;;5016075;28;19913;-75
2022/06/08 13:07:11;;;;;;;;;;;18.10;99.90;;;;;;5015370;28;19905;-75
2022/06/08 13:09:37;;;;;;;;;;;18.00;99.90;;;;;;5027808;28;19909;-75
2022/06/08 13:12:02;;;;;;;;;;;18.10;99.90;;;;;;5036045;28;19913;-75
2022/06/08 13:14:28;;;;;;;;;;;18.00;99.90;;;;;;5037457;28;19931;-75
2022/06/08 13:16:54;;;;;;;;;;;18.00;99.90;;;;;;5035302;28;19965;-76
2022/06/08 13:19:20;;;;;;;;;;;17.90;99.90;;;;;;5032764;28;19912;-75
2022/06/08 13:21:47;;;;;;;;;;;18.00;99.90;;;;;;5035150;28;19913;-76
2022/06/08 13:24:13;;;;;;;;;;;17.80;99.90;;;;;;5030266;28;19909;-80
2022/06/08 13:26:39;;;;;;;;;;;17.70;99.90;;;;;;5029566;28;20000;-82
2022/06/08 13:29:06;;;;;;;;;;;17.50;99.90;;;;;;5028600;28;19913;-79
2022/06/08 13:31:31;;;;;;;;;;;17.60;99.90;;;;;;5027581;28;20337;-79
2022/06/08 13:34:02;;;;;;;;;;;17.60;99.90;;;;;;5029863;28;19909;-82
2022/06/08 13:36:33;;;;;;;;;;;17.60;99.90;;;;;;5035760;28;19912;-80
2022/06/08 13:39:05;;;;;;;;;;;17.50;99.90;;;;;;5049428;28;19912;-79
2022/06/08 13:41:31;;;;;;;;;;;17.50;99.90;;;;;;5049631;28;19937;-76
2022/06/08 13:43:59;;;;;;;;;;;17.40;99.90;;;;;;5048645;28;19912;-76
2022/06/08 13:46:27;;;;;;;;;;;17.40;99.90;;;;;;5037828;28;19915;-78
2022/06/08 13:48:53;;;;;;;;;;;17.40;99.90;;;;;;5035234;28;19912;-76
2022/06/08 13:51:21;;;;;;;;;;;17.40;99.90;;;;;;5031715;28;19909;-75
2022/06/08 13:53:47;;;;;;;;;;;17.50;99.90;;;;;;5036611;28;19927;-75
2022/06/08 13:56:13;;;;;;;;;;;17.60;99.90;;;;;;5052016;28;20337;-76
2022/06/08 13:58:39;;;;;;;;;;;17.90;99.90;;;;;;5048814;28;19909;-76
2022/06/08 14:01:29;;;;;;;;;;;18.00;99.90;;;;;;5044724;28;19916;-77
2022/06/08 14:03:55;;;;;;;;;;;18.20;99.90;;;;;;5020095;28;20356;-76
2022/06/08 14:14:40;;;;;;;;;;;17.90;99.90;;;;;;5028788;28;19912;-77
2022/06/08 14:17:06;;;;;;;;;;;18.00;99.90;;;;;;5028962;28;19921;-77
2022/06/08 14:19:35;;;;;;;;;;;17.90;99.90;;;;;;5028448;28;20451;-77
2022/06/08 14:22:01;;;;;;;;;;;18.00;99.90;;;;;;5043470;28;20316;-76
2022/06/08 14:24:29;;;;;;;;;;;18.00;99.90;;;;;;5043334;28;19916;-76
2022/06/08 14:26:54;;;;;;;;;;;18.20;99.90;;;;;;5028715;28;20019;-77
2022/06/08 14:29:20;;;;;;;;;;;18.40;99.90;;;;;;5043221;28;19996;-76
2022/06/08 14:31:46;;;;;;;;;;;18.80;99.90;;;;;;5028694;28;20202;-77
2022/06/08 14:35:39;;;;;;;3.22;0.80;;;18.80;99.90;;;;;;5097427;27;1447036;-75
2022/06/08 14:38:05;;;;;;;0.70;0.55;;;18.90;99.90;;;;;;5124982;27;20094;-77
2022/06/08 14:40:34;;;;;;;2.08;0.50;;;18.60;99.90;;;;;;5110563;27;20028;-77
2022/06/08 14:43:04;;;;;;;3.13;0.57;;;17.80;99.90;;;;;;5105385;28;20094;-76
2022/06/08 14:45:30;;;;;;;1.50;0.70;;;18.10;99.90;;;;;;5105069;28;20549;-80
2022/06/08 14:47:56;;;;;;;0.93;0.57;;;18.20;99.90;;;;;;5103729;28;20024;-76
2022/06/08 14:50:25;;;;;;;3.42;0.70;;;18.30;99.90;;;;;;5103638;28;20077;-77
2022/06/08 14:52:52;;;;;;;2.22;0.77;;;18.40;99.90;;;;;;5102589;28;20111;-79
2022/06/08 14:58:05;;;;;;;2.50;0.45;;;18.40;99.90;;;;;;5120781;28;20080;-79